Time;durP1;ratioP1;P1;durP2;ratioP2;P2;SDS_P1;SDS_P2;PMS_P1;PMS_P2;Temp;Humidity;BMP_temperature;BMP_pressure;BME280_temperature;BME280_humidity;BME280_pressure;Samples;Min_cycle;Max_cycle;Signal;HPM_P1;HPM_P2
2021/10/27 00:01:00;;;;;;;;;;;;;;;-144.99;100.00;52505.16;5068799;28;19973;-71
2021/10/27 00:03:27;;;;;;;;;;;;;;;-144.99;100.00;52435.88;5064907;28;20384;-71
2021/10/27 00:05:53;;;;;;;;;;;;;;;-144.99;100.00;52425.66;5067642;28;19980;-70
2021/10/27 00:08:20;;;;;;;;;;;;;;;-144.99;100.00;52452.16;5070682;28;19992;-71
2021/10/27 00:10:47;;;;;;;;;;;;;;;-144.99;100.00;52456.25;5066281;28;20112;-70
2021/10/27 00:13:14;;;;;;;;;;;;;;;-144.99;100.00;52452.16;5069225;28;20007;-70
2021/10/27 00:15:42;;;;;;;;;;;;;;;-144.99;100.00;52468.47;5067091;28;19993;-71
2021/10/27 00:18:08;;;;;;;;;;;;;;;-144.99;100.00;52431.78;5069651;28;19973;-70
2021/10/27 00:20:35;;;;;;;;;;;;;;;-144.99;100.00;52448.09;5069828;28;20046;-68
2021/10/27 00:23:01;;;;;;;;;;;;;;;-144.99;100.00;52492.94;5066629;28;20036;-69
2021/10/27 00:25:28;;;;;;;;;;;;;;;-144.99;100.00;52472.56;5066922;28;19973;-70
2021/10/27 00:27:54;;;;;;;;;;;;;;;-144.99;100.00;52484.78;5073600;28;19983;-71
2021/10/27 00:30:21;;;;;;;;;;;;;;;-144.99;100.00;52484.78;5076416;28;19973;-69
2021/10/27 00:32:49;;;;;;;;;;;;;;;-144.99;100.00;52482.75;5066252;28;20590;-69
2021/10/27 00:35:15;;;;;;;;;;;;;;;-144.99;100.00;52501.09;5064232;28;19979;-70
2021/10/27 00:37:42;;;;;;;;;;;;;;;-144.99;100.00;52462.34;5064510;28;20350;-70
2021/10/27 00:40:08;;;;;;;;;;;;;;;-144.99;100.00;52517.41;5066127;28;19973;-68
2021/10/27 00:42:35;;;;;;;;;;;;;;;-144.99;100.00;52488.84;5069021;28;20446;-69
2021/10/27 00:45:02;;;;;;;;;;;;;;;-144.99;100.00;52476.63;5066491;28;19953;-68
2021/10/27 00:47:28;;;;;;;;;;;;;;;-144.99;100.00;52448.09;5071169;28;19987;-67
2021/10/27 00:49:56;;;;;;;;;;;;;;;-144.99;100.00;52476.63;5072506;28;19981;-68
2021/10/27 00:52:22;;;;;;;;;;;;;;;-144.99;100.00;52468.47;5071838;28;20346;-68
2021/10/27 00:54:50;;;;;;;;;;;;;;;-144.99;100.00;52484.78;5063669;28;19987;-69
2021/10/27 00:57:17;;;;;;;;;;;;;;;-144.99;100.00;52452.16;5064081;28;19996;-68
2021/10/27 00:59:45;;;;;;;;;;;;;;;-144.99;100.00;52497.00;5068930;28;19977;-68
2021/10/27 01:02:12;;;;;;;;;;;;;;;-144.99;100.00;52452.16;5063350;28;19989;-68
2021/10/27 01:04:39;;;;;;;;;;;;;;;-144.99;100.00;52501.09;5064950;28;20429;-68
2021/10/27 01:07:07;;;;;;;;;;;;;;;-144.99;100.00;52439.94;5066294;28;19973;-70
2021/10/27 01:09:34;;;;;;;;;;;;;;;-144.99;100.00;52468.47;5068924;28;19976;-68
2021/10/27 01:12:00;;;;;;;;;;;;;;;-144.99;100.00;52448.09;5065561;28;19989;-68
2021/10/27 01:14:33;;;;;;;;;;;;;;;-144.99;100.00;52456.25;5063718;28;19973;-68
2021/10/27 01:16:59;;;;;;;;;;;;;;;-144.99;100.00;52472.56;5063827;28;19999;-68
2021/10/27 01:19:26;;;;;;;;;;;;;;;-144.99;100.00;52484.78;5066521;28;19979;-68
2021/10/27 01:21:54;;;;;;;;;;;;;;;-144.99;100.00;52484.78;5060500;28;20407;-68
2021/10/27 01:24:20;;;;;;;;;;;;;;;-144.99;100.00;52484.78;5062948;28;20394;-68
2021/10/27 01:26:47;;;;;;;;;;;;;;;-144.99;100.00;52444.03;5064495;28;20000;-68
2021/10/27 01:29:13;;;;;;;;;;;;;;;-144.99;100.00;52488.84;5067175;28;19973;-66
2021/10/27 01:31:39;;;;;;;;;;;;;;;-144.99;100.00;52433.81;5068758;28;20410;-65
2021/10/27 01:34:06;;;;;;;;;;;;;;;-144.99;100.00;52464.41;5065736;28;20345;-66
2021/10/27 01:36:32;;;;;;;;;;;;;;;-144.99;100.00;52480.72;5062466;28;20020;-65
2021/10/27 01:39:00;;;;;;;;;;;;;;;-144.99;100.00;52452.16;5066278;28;19999;-65
2021/10/27 01:41:27;;;;;;;;;;;;;;;-144.99;100.00;52464.41;5066167;28;20002;-65
2021/10/27 01:43:55;;;;;;;;;;;;;;;-144.99;100.00;52456.25;5067284;28;20422;-68
2021/10/27 01:46:26;;;;;;;;;;;;;;;-144.99;100.00;52484.78;5067395;28;19977;-67
2021/10/27 01:48:52;;;;;;;;;;;;;;;-144.99;100.00;52456.25;5066704;28;19988;-67
2021/10/27 01:51:19;;;;;;;;;;;;;;;-144.99;100.00;52460.31;5066613;28;20352;-67
2021/10/27 01:53:45;;;;;;;;;;;;;;;-144.99;100.00;52492.94;5064026;28;19997;-68
2021/10/27 01:56:13;;;;;;;;;;;;;;;-144.99;100.00;52450.13;5061431;28;20289;-68
2021/10/27 01:58:39;;;;;;;;;;;;;;;-144.99;100.00;52456.25;5067092;28;20452;-68
2021/10/27 02:01:05;;;;;;;;;;;;;;;-144.99;100.00;52484.78;5067041;28;19973;-68
2021/10/27 02:03:32;;;;;;;;;;;;;;;-144.99;100.00;52452.16;5066960;28;20591;-69
2021/10/27 02:05:58;;;;;;;;;;;;;;;-144.99;100.00;52452.16;5069378;28;19977;-68
2021/10/27 02:08:24;;;;;;;;;;;;;;;-144.99;100.00;52450.13;5067606;28;20028;-69
2021/10/27 02:10:51;;;;;;;;;;;;;;;-144.99;100.00;52476.63;5069713;28;20362;-69
2021/10/27 02:13:18;;;;;;;;;;;;;;;-144.99;100.00;52474.59;5066811;28;19996;-69
2021/10/27 02:15:45;;;;;;;;;;;;;;;-144.99;100.00;52456.25;5066614;28;19973;-70
2021/10/27 02:18:12;;;;;;;;;;;;;;;-144.99;100.00;52464.41;5063822;28;19973;-70
2021/10/27 02:20:38;;;;;;;;;;;;;;;-144.99;100.00;52435.88;5059953;28;20329;-69
2021/10/27 02:23:04;;;;;;;;;;;;;;;-144.99;100.00;52468.47;5062862;28;19997;-69
2021/10/27 02:25:31;;;;;;;;;;;;;;;-144.99;100.00;52427.72;5067141;28;20075;-69
2021/10/27 02:27:57;;;;;;;;;;;;;;;-144.99;100.00;52470.50;5064552;28;19972;-70
2021/10/27 02:30:25;;;;;;;;;;;;;;;-144.99;100.00;52480.72;5064383;28;20322;-70
2021/10/27 02:32:51;;;;;;;;;;;;;;;-144.99;100.00;52456.25;5063354;28;19997;-70
2021/10/27 02:35:18;;;;;;;;;;;;;;;-144.99;100.00;52448.09;5063389;28;20349;-70
2021/10/27 02:37:44;;;;;;;;;;;;;;;-144.99;100.00;52494.97;5064296;28;19992;-70
2021/10/27 02:40:14;;;;;;;;;;;;;;;-144.99;100.00;52444.03;5061996;28;19973;-70
2021/10/27 02:42:40;;;;;;;;;;;;;;;-144.99;100.00;52431.78;5062211;28;19993;-73
2021/10/27 02:45:07;;;;;;;;;;;;;;;-144.99;100.00;52454.22;5062486;28;19973;-73
2021/10/27 02:47:35;;;;;;;;;;;;;;;-144.99;100.00;52505.16;5061919;28;19980;-74
2021/10/27 02:50:01;;;;;;;;;;;;;;;-144.99;100.00;52476.63;5059090;28;19977;-73
2021/10/27 02:52:28;;;;;;;;;;;;;;;-144.99;100.00;52431.78;5063285;28;20011;-71
2021/10/27 02:54:54;;;;;;;;;;;;;;;-144.99;100.00;52464.41;5062666;28;20357;-72
2021/10/27 02:57:20;;;;;;;;;;;;;;;-144.99;100.00;52456.25;5059558;28;20086;-72
2021/10/27 02:59:46;;;;;;;;;;;;;;;-144.99;100.00;52431.78;5060765;28;20478;-72
2021/10/27 03:02:13;;;;;;;;;;;;;;;-144.99;100.00;52452.16;5063155;28;20004;-72
2021/10/27 03:04:42;;;;;;;;;;;;;;;-144.99;100.00;52437.91;5065498;28;19988;-73
2021/10/27 03:07:08;;;;;;;;;;;;;;;-144.99;100.00;52484.78;5060774;28;20064;-72
2021/10/27 03:09:34;;;;;;;;;;;;;;;-144.99;100.00;52468.47;5062187;28;19973;-70
2021/10/27 03:12:01;;;;;;;;;;;;;;;-144.99;100.00;52437.91;5066304;28;19993;-69
2021/10/27 03:14:28;;;;;;;;;;;;;;;-144.99;100.00;52452.16;5067489;28;19973;-71
2021/10/27 03:16:54;;;;;;;;;;;;;;;-144.99;100.00;52460.31;5065369;28;20377;-71
2021/10/27 03:19:21;;;;;;;;;;;;;;;-144.99;100.00;52472.56;5065995;28;19973;-70
2021/10/27 03:21:48;;;;;;;;;;;;;;;-144.99;100.00;52450.13;5018665;22;1759281;-61
2021/10/27 03:24:16;;;;;;;;;;;;;;;-144.99;100.00;52411.41;5082853;28;20062;-59
2021/10/27 03:26:42;;;;;;;;;;;;;;;-144.99;100.00;52452.16;5082434;28;20020;-60
2021/10/27 03:29:09;;;;;;;;;;;;;;;-144.99;100.00;52433.81;5081787;28;20016;-60
2021/10/27 03:31:35;;;;;;;;;;;;;;;-144.99;100.00;52439.94;5075765;28;19972;-60
2021/10/27 03:34:01;;;;;;;;;;;;;;;-144.99;100.00;52472.56;5084696;28;19979;-60
2021/10/27 03:36:28;;;;;;;;;;;;;;;-144.99;100.00;52472.56;5082928;28;20440;-60
2021/10/27 03:38:56;;;;;;;;;;;;;;;-144.99;100.00;52460.31;5090250;28;20391;-60
2021/10/27 03:41:22;;;;;;;;;;;;;;;-144.99;100.00;52456.25;5082567;28;19980;-60
2021/10/27 03:43:49;;;;;;;;;;;;;;;-144.99;100.00;52482.75;5086041;28;19976;-61
2021/10/27 03:46:15;;;;;;;;;;;;;;;-144.99;100.00;52458.28;5091187;28;19977;-61
2021/10/27 03:48:42;;;;;;;;;;;;;;;-144.99;100.00;52472.56;5088464;28;19981;-60
2021/10/27 03:51:11;;;;;;;;;;;;;;;-144.99;100.00;52454.22;5087299;28;19983;-63
2021/10/27 03:53:37;;;;;;;;;;;;;;;-144.99;100.00;52448.09;5091575;28;19993;-59
2021/10/27 03:56:05;;;;;;;;;;;;;;;-144.99;100.00;52460.31;5088286;28;19972;-59
2021/10/27 03:58:33;;;;;;;;;;;;;;;-144.99;100.00;52417.53;5089626;28;19989;-59
2021/10/27 04:01:00;;;;;;;;;;;;;;;-144.99;100.00;52439.94;5090406;28;20015;-62
2021/10/27 04:03:27;;;;;;;;;;;;;;;-144.99;100.00;52468.47;5087881;28;19989;-62
2021/10/27 04:05:53;;;;;;;;;;;;;;;-144.99;100.00;52456.25;5093936;28;20040;-62
2021/10/27 04:08:20;;;;;;;;;;;;;;;-144.99;100.00;52431.78;5078052;28;19973;-62
2021/10/27 04:10:46;;;;;;;;;;;;;;;-144.99;100.00;52452.16;5088512;28;19981;-62
2021/10/27 04:13:14;;;;;;;;;;;;;;;-144.99;100.00;52444.03;5079290;28;19989;-62
2021/10/27 04:15:40;;;;;;;;;;;;;;;-144.99;100.00;52456.25;5083784;28;20456;-59
2021/10/27 04:18:07;;;;;;;;;;;;;;;-144.99;100.00;52456.25;5087936;28;20476;-63
2021/10/27 04:20:33;;;;;;;;;;;;;;;-144.99;100.00;52505.16;5083844;28;20397;-67
2021/10/27 04:23:00;;;;;;;;;;;;;;;-144.99;100.00;52458.28;5082870;28;19997;-62
2021/10/27 04:25:26;;;;;;;;;;;;;;;-144.99;100.00;52415.47;5085597;28;19984;-61
2021/10/27 04:27:52;;;;;;;;;;;;;;;-144.99;100.00;52476.63;5082543;28;19980;-62
2021/10/27 04:30:20;;;;;;;;;;;;;;;-144.99;100.00;52472.56;5088943;28;19980;-62
2021/10/27 04:32:46;;;;;;;;;;;;;;;-144.99;100.00;52427.72;5088369;28;20000;-62
2021/10/27 04:35:13;;;;;;;;;;;;;;;-144.99;100.00;52441.97;5083650;28;19980;-62
2021/10/27 04:37:42;;;;;;;;;;;;;;;-144.99;100.00;52452.16;5087801;28;19992;-61
2021/10/27 04:40:10;;;;;;;;;;;;;;;-144.99;100.00;52431.78;5087306;28;20003;-61
2021/10/27 04:42:36;;;;;;;;;;;;;;;-144.99;100.00;52415.47;5086082;28;19996;-63
2021/10/27 04:45:03;;;;;;;;;;;;;;;-144.99;100.00;52460.31;5081514;28;19984;-63
2021/10/27 04:47:31;;;;;;;;;;;;;;;-144.99;100.00;52497.00;5089031;28;19976;-63
2021/10/27 04:49:58;;;;;;;;;;;;;;;-144.99;100.00;52456.25;5085012;28;19969;-63
2021/10/27 04:52:24;;;;;;;;;;;;;;;-144.99;100.00;52468.47;5085138;28;19992;-63
2021/10/27 04:54:51;;;;;;;;;;;;;;;-144.99;100.00;52439.94;5085034;28;19976;-63
2021/10/27 04:57:17;;;;;;;;;;;;;;;-144.99;100.00;52468.47;5088071;28;19989;-63
2021/10/27 04:59:44;;;;;;;;;;;;;;;-144.99;100.00;52456.25;5081716;28;20028;-63
2021/10/27 05:02:11;;;;;;;;;;;;;;;-144.99;100.00;52470.50;4032109;28;10001253;-64
2021/10/27 05:04:39;;;;;;;;;;;;;;;-144.99;100.00;52452.16;5081132;28;19987;-70
2021/10/27 05:07:06;;;;;;;;;;;;;;;-144.99;100.00;52478.66;5079283;28;20068;-70
2021/10/27 05:09:32;;;;;;;;;;;;;;;-144.99;100.00;52470.50;5081269;28;19973;-69
2021/10/27 05:11:59;;;;;;;;;;;;;;;-144.99;100.00;52482.75;5084022;28;19993;-68
2021/10/27 05:14:25;;;;;;;;;;;;;;;-144.99;100.00;52448.09;5082706;28;19983;-68
2021/10/27 05:16:52;;;;;;;;;;;;;;;-144.99;100.00;52429.75;5080040;28;19980;-69
2021/10/27 05:19:19;;;;;;;;;;;;;;;-144.99;100.00;52456.25;5082541;28;19995;-67
2021/10/27 05:21:47;;;;;;;;;;;;;;;-144.99;100.00;52452.16;5082891;28;20226;-69
2021/10/27 05:24:13;;;;;;;;;;;;;;;-144.99;100.00;52452.16;5083670;28;20054;-72
2021/10/27 05:26:40;;;;;;;;;;;;;;;-144.99;100.00;52415.47;5083134;28;20010;-73
2021/10/27 05:29:06;;;;;;;;;;;;;;;-144.99;100.00;52460.31;5080103;28;19976;-73
2021/10/27 05:31:32;;;;;;;;;;;;;;;-144.99;100.00;52456.25;5079182;28;19983;-72
2021/10/27 05:33:59;;;;;;;;;;;;;;;-144.99;100.00;52421.59;5081793;28;19976;-71
2021/10/27 05:36:26;;;;;;;;;;;;;;;-144.99;100.00;52464.41;5079838;28;19973;-72
2021/10/27 05:38:54;;;;;;;;;;;;;;;-144.99;100.00;52452.16;5082243;28;20727;-72
2021/10/27 05:41:21;;;;;;;;;;;;;;;-144.99;100.00;52435.88;5080988;28;19972;-73
2021/10/27 05:43:48;;;;;;;;;;;;;;;-144.99;100.00;52474.59;5083162;28;20455;-72
2021/10/27 05:46:17;;;;;;;;;;;;;;;-144.99;100.00;52460.31;5082106;28;20094;-71
2021/10/27 05:48:46;;;;;;;;;;;;;;;-144.99;100.00;52486.81;5084555;28;20204;-72
2021/10/27 05:51:20;;;;;;;;;;;;;;;-144.99;100.00;52448.09;5080126;28;20020;-74
2021/10/27 05:56:31;;;;;;;;;;;;;;;-144.99;100.00;52472.56;5080809;28;19991;-72
2021/10/27 05:58:59;;;;;;;;;;;;;;;-144.99;100.00;52492.94;5083580;28;19996;-73
2021/10/27 06:01:25;;;;;;;;;;;;;;;-144.99;100.00;52448.09;5082154;28;19973;-72
2021/10/27 06:03:52;;;;;;;;;;;;;;;-144.99;100.00;52480.72;5082810;28;19987;-74
2021/10/27 06:06:18;;;;;;;;;;;;;;;-144.99;100.00;52503.13;5079309;28;20128;-73
2021/10/27 06:08:45;;;;;;;;;;;;;;;-144.99;100.00;52448.09;5078823;28;20448;-74
2021/10/27 06:11:14;;;;;;;;;;;;;;;-144.99;100.00;52513.31;5081198;28;20003;-73
2021/10/27 06:13:45;;;;;;;;;;;;;;;-144.99;100.00;52458.28;5077683;28;20449;-71
2021/10/27 06:16:12;;;;;;;;;;;;;;;-144.99;100.00;52452.16;5081410;28;20016;-71
2021/10/27 06:18:39;;;;;;;;;;;;;;;-144.99;100.00;52468.47;5081337;28;20616;-71
2021/10/27 06:21:05;;;;;;;;;;;;;;;-144.99;100.00;52472.56;5081663;28;19976;-73
2021/10/27 06:23:32;;;;;;;;;;;;;;;-144.99;100.00;52468.47;5082314;28;20399;-72
2021/10/27 06:25:59;;;;;;;;;;;;;;;-144.99;100.00;52490.91;5079871;28;19973;-72
2021/10/27 06:28:29;;;;;;;;;;;;;;;-144.99;100.00;52456.25;5078263;28;19986;-75
2021/10/27 06:31:01;;;;;;;;;;;;;;;-144.99;100.00;52435.88;5082212;28;19973;-71
2021/10/27 06:33:43;;;;;;;;;;;;;;;-144.99;100.00;52517.41;5080670;28;19992;-74
2021/10/27 06:36:11;;;;;;;;;;;;;;;-144.99;100.00;52486.81;5075302;28;19976;-72
2021/10/27 06:38:56;;;;;;;;;;;;;;;-144.99;100.00;52448.09;5082910;28;19924;-72
2021/10/27 06:46:52;;;;;;;;;;;;;;;-144.99;100.00;52448.09;5080757;28;20029;-73
2021/10/27 06:49:18;;;;;;;;;;;;;;;-144.99;100.00;52464.41;5080579;28;19981;-72
2021/10/27 06:51:45;;;;;;;;;;;;;;;-144.99;100.00;52452.16;5077219;28;19983;-73
2021/10/27 06:54:11;;;;;;;;;;;;;;;-144.99;100.00;52480.72;5078804;28;19988;-73
2021/10/27 06:56:38;;;;;;;;;;;;;;;-144.99;100.00;52488.84;5079553;28;20070;-71
2021/10/27 06:59:09;;;;;;;;;;;;;;;-144.99;100.00;52439.94;5079391;28;20031;-74
2021/10/27 07:02:05;;;;;;;;;;;;;;;-144.99;100.00;52435.88;5077992;28;19981;-74
2021/10/27 07:15:36;;;;;;;;;;;;;;;-144.99;100.00;52450.13;5077595;28;20034;-72
2021/10/27 07:18:03;;;;;;;;;;;;;;;-144.99;100.00;52476.63;5073297;28;20003;-73
2021/10/27 07:20:31;;;;;;;;;;;;;;;-144.99;100.00;52480.72;5075820;28;19983;-72
2021/10/27 07:23:00;;;;;;;;;;;;;;;-144.99;100.00;52484.78;5075021;28;20000;-72
2021/10/27 07:25:27;;;;;;;;;;;;;;;-144.99;100.00;52419.56;5081124;28;19980;-73
2021/10/27 07:27:53;;;;;;;;;;;;;;;-144.99;100.00;52476.63;5076152;28;19989;-72
2021/10/27 07:30:19;;;;;;;;;;;;;;;-144.99;100.00;52456.25;5077981;28;19984;-74
2021/10/27 07:32:51;;;;;;;;;;;;;;;-144.99;100.00;52486.81;5076443;28;19993;-72
2021/10/27 07:35:24;;;;;;;;;;;;;;;-144.99;100.00;52427.72;5076565;28;20333;-72
2021/10/27 07:40:38;;;;;;;;;;;;;;;-144.99;100.00;52468.47;5076179;28;19991;-72
2021/10/27 07:43:07;;;;;;;;;;;;;;;-144.99;100.00;52429.75;5088817;28;20036;-72
2021/10/27 07:45:34;;;;;;;;;;;;;;;-144.99;100.00;52448.09;5078817;28;20344;-73
2021/10/27 07:48:01;;;;;;;;;;;;;;;-144.99;100.00;52480.72;5077408;28;19987;-73
2021/10/27 07:50:28;;;;;;;;;;;;;;;-144.99;100.00;52452.16;5075455;28;20363;-72
2021/10/27 07:52:57;;;;;;;;;;;;;;;-144.99;100.00;52472.56;5076748;28;20010;-72
2021/10/27 07:55:24;;;;;;;;;;;;;;;-144.99;100.00;52488.84;5078799;28;19980;-72
2021/10/27 07:57:50;;;;;;;;;;;;;;;-144.99;100.00;52444.03;5079777;28;20385;-72
2021/10/27 08:00:17;;;;;;;;;;;;;;;-144.99;100.00;52456.25;5078530;28;20324;-73
2021/10/27 08:02:44;;;;;;;;;;;;;;;-144.99;100.00;52435.88;5080077;28;20013;-71
2021/10/27 08:05:11;;;;;;;;;;;;;;;-144.99;100.00;52468.47;5078630;28;19984;-72
2021/10/27 08:07:45;;;;;;;;;;;;;;;-144.99;100.00;52431.78;5080007;28;20621;-72
2021/10/27 08:10:13;;;;;;;;;;;;;;;-144.99;100.00;52448.09;5077185;28;19983;-73
2021/10/27 08:12:39;;;;;;;;;;;;;;;-144.99;100.00;52452.16;5075934;28;19996;-70
2021/10/27 08:15:06;;;;;;;;;;;;;;;-144.99;100.00;52444.03;5081546;28;19984;-72
2021/10/27 08:17:32;;;;;;;;;;;;;;;-144.99;100.00;52456.25;5077977;28;20078;-72
2021/10/27 08:19:59;;;;;;;;;;;;;;;-144.99;100.00;52444.03;5076722;28;20360;-71
2021/10/27 08:22:25;;;;;;;;;;;;;;;-144.99;100.00;52460.31;5079597;28;20109;-71
2021/10/27 08:24:53;;;;;;;;;;;;;;;-144.99;100.00;52439.94;5077284;28;20000;-71
2021/10/27 08:27:22;;;;;;;;;;;;;;;-144.99;100.00;52433.81;5085036;28;20596;-71
2021/10/27 08:29:49;;;;;;;;;;;;;;;-144.99;100.00;52395.09;5082215;28;20429;-72
2021/10/27 08:32:19;;;;;;;;;;;;;;;-144.99;100.00;52444.03;5079593;28;20544;-72
2021/10/27 08:34:48;;;;;;;;;;;;;;;-144.99;100.00;52446.06;5081192;28;19981;-73
2021/10/27 08:37:15;;;;;;;;;;;;;;;-144.99;100.00;52431.78;5082314;28;19977;-72
2021/10/27 08:39:41;;;;;;;;;;;;;;;-144.99;100.00;52452.16;5077070;28;20338;-72
2021/10/27 08:42:08;;;;;;;;;;;;;;;-144.99;100.00;52456.25;5078037;28;19988;-70
2021/10/27 08:44:35;;;;;;;;;;;;;;;-144.99;100.00;52456.25;5078994;28;19972;-71
2021/10/27 08:47:03;;;;;;;;;;;;;;;-144.99;100.00;52435.88;5083414;28;20349;-71
2021/10/27 08:49:31;;;;;;;;;;;;;;;-144.99;100.00;52458.28;5080278;28;20070;-73
2021/10/27 08:51:58;;;;;;;;;;;;;;;-144.99;100.00;52437.91;5077243;28;19999;-73
2021/10/27 08:54:25;;;;;;;;;;;;;;;-144.99;100.00;52482.75;5082686;28;19984;-72
2021/10/27 08:56:55;;;;;;;;;;;;;;;-144.99;100.00;52452.16;5081511;28;19980;-75
2021/10/27 08:59:23;;;;;;;;;;;;;;;-144.99;100.00;52423.63;5079888;28;19992;-71
2021/10/27 09:01:59;;;;;;;;;;;;;;;-144.99;100.00;52460.31;5081791;28;20057;-72
2021/10/27 09:04:41;;;;;;;;;;;;;;;-144.99;100.00;52454.22;5079730;28;19976;-73
2021/10/27 09:07:14;;;;;;;;;;;;;;;-144.99;100.00;52444.03;5076313;28;19977;-72
2021/10/27 09:35:00;;;;;;;;;;;;;;;-144.99;100.00;52441.97;5096321;28;20304;-70
2021/10/27 10:05:32;;;;;;;;;;;;;;;-144.99;100.00;52429.75;5033427;28;20055;-72
2021/10/27 10:08:00;;;;;;;;;;;;;;;-144.99;100.00;52431.78;5078612;28;19977;-71
2021/10/27 10:10:27;;;;;;;;;;;;;;;-144.99;100.00;52407.31;5095239;28;19972;-72
2021/10/27 10:12:53;;;;;;;;;;;;;;;-144.99;100.00;52433.81;5093371;28;20018;-71
2021/10/27 10:15:23;;;;;;;;;;;;;;;-144.99;100.00;52423.63;5095870;28;19981;-73
2021/10/27 10:17:51;;;;;;;;;;;;;;;-144.99;100.00;52431.78;5092644;28;20038;-72
2021/10/27 10:20:18;;;;;;;;;;;;;;;-144.99;100.00;52452.16;5092018;28;20042;-73
2021/10/27 10:22:45;;;;;;;;;;;;;;;-144.99;100.00;52399.19;5096658;28;20007;-72
2021/10/27 10:25:31;;;;;;;;;;;;;;;-144.99;100.00;52441.97;5095251;28;19981;-72
2021/10/27 10:27:58;;;;;;;;;;;;;;;-144.99;100.00;52439.94;5085440;28;19976;-71
2021/10/27 10:30:26;;;;;;;;;;;;;;;-144.99;100.00;52427.72;5095485;28;19973;-73
2021/10/27 10:33:03;;;;;;;;;;;;;;;-144.99;100.00;52407.31;5098528;28;20024;-72
2021/10/27 10:35:40;;;;;;;;;;;;;;;-144.99;100.00;52439.94;5090934;28;19991;-74
2021/10/27 10:38:24;;;;;;;;;;;;;;;-144.99;100.00;52452.16;5096851;28;19972;-71
2021/10/27 10:41:03;;;;;;;;;;;;;;;-144.99;100.00;52454.22;5090861;28;19980;-73
2021/10/27 10:58:11;;;;;;;;;;;;;;;-144.99;100.00;52448.09;5096140;28;19983;-71
2021/10/27 11:00:57;;;;;;;;;;;;;;;-144.99;100.00;52448.09;5085854;28;19987;-72
2021/10/27 11:03:56;;;;;;;;;;;;;;;-144.99;100.00;52456.25;5089011;28;20407;-73
2021/10/27 11:23:37;;;;;;;;;;;;;;;-144.99;100.00;52431.78;5094350;28;20061;-71
2021/10/27 11:26:29;;;;;;;;;;;;;;;-144.99;100.00;52425.66;5090677;28;19983;-73
2021/10/27 11:37:31;;;;;;;;;;;;;;;-144.99;100.00;52468.47;5096611;28;19980;-71
2021/10/27 11:40:06;;;;;;;;;;;;;;;-144.99;100.00;52419.56;5098601;28;20003;-72
2021/10/27 11:42:41;;;;;;;;;;;;;;;-144.99;100.00;52427.72;5096856;28;19999;-71
2021/10/27 11:45:21;;;;;;;;;;;;;;;-144.99;100.00;52386.94;5096667;28;20354;-73
2021/10/27 11:47:52;;;;;;;;;;;;;;;-144.99;100.00;52439.94;5095763;28;20409;-72
2021/10/27 11:50:19;;;;;;;;;;;;;;;-144.99;100.00;52452.16;5098442;28;19972;-73
2021/10/27 11:52:49;;;;;;;;;;;;;;;-144.99;100.00;52452.16;5097034;28;19996;-73
2021/10/27 11:55:16;;;;;;;;;;;;;;;-144.99;100.00;52407.31;5097438;28;20045;-71
2021/10/27 11:57:43;;;;;;;;;;;;;;;-144.99;100.00;52435.88;5098903;28;20016;-70
2021/10/27 12:00:22;;;;;;;;;;;;;;;-144.99;100.00;52421.59;5099444;28;19999;-71
2021/10/27 12:02:56;;;;;;;;;;;;;;;-144.99;100.00;52419.56;5097233;28;19999;-71
2021/10/27 12:05:24;;;;;;;;;;;;;;;-144.99;100.00;52415.47;5099068;28;19976;-72
2021/10/27 12:08:09;;;;;;;;;;;;;;;-144.99;100.00;52427.72;5100191;28;20028;-74
2021/10/27 12:10:44;;;;;;;;;;;;;;;-144.99;100.00;52454.22;5093112;28;19973;-72
2021/10/27 12:13:18;;;;;;;;;;;;;;;-144.99;100.00;52448.09;5093644;28;19991;-72
2021/10/27 12:16:02;;;;;;;;;;;;;;;-144.99;100.00;52439.94;5093065;28;19983;-72
2021/10/27 12:18:31;;;;;;;;;;;;;;;-144.99;100.00;52448.09;5094536;28;19972;-71
2021/10/27 12:20:58;;;;;;;;;;;;;;;-144.99;100.00;52435.88;5095177;28;20075;-72
2021/10/27 12:23:25;;;;;;;;;;;;;;;-144.99;100.00;52472.56;5095573;28;20007;-70
2021/10/27 12:25:53;;;;;;;;;;;;;;;-144.99;100.00;52492.94;5092972;28;20349;-72
2021/10/27 12:28:29;;;;;;;;;;;;;;;-144.99;100.00;52460.31;5100423;28;20346;-73
2021/10/27 12:30:55;;;;;;;;;;;;;;;-144.99;100.00;52460.31;5104948;28;20167;-74
2021/10/27 12:33:37;;;;;;;;;;;;;;;-144.99;100.00;52431.78;5095385;28;19996;-72
2021/10/27 12:36:14;;;;;;;;;;;;;;;-144.99;100.00;52415.47;5096515;28;20002;-73
2021/10/27 12:38:42;;;;;;;;;;;;;;;-144.99;100.00;52476.63;5098706;28;19987;-71
2021/10/27 12:41:21;;;;;;;;;;;;;;;-144.99;100.00;52464.41;5093457;28;20027;-72
2021/10/27 12:43:47;;;;;;;;;;;;;;;-144.99;100.00;52413.44;5093033;28;20414;-71
2021/10/27 12:46:18;;;;;;;;;;;;;;;-144.99;100.00;52464.41;5098144;28;19979;-70
2021/10/27 12:48:46;;;;;;;;;;;;;;;-144.99;100.00;52466.44;5098605;28;20246;-71
2021/10/27 12:51:13;;;;;;;;;;;;;;;-144.99;100.00;52419.56;5090281;28;19985;-70
2021/10/27 12:53:40;;;;;;;;;;;;;;;-144.99;100.00;52452.16;5100151;28;20068;-72
2021/10/27 12:56:08;;;;;;;;;;;;;;;-144.99;100.00;52431.78;5097839;28;20413;-72
2021/10/27 12:58:35;;;;;;;;;;;;;;;-144.99;100.00;52466.44;5098035;28;20008;-70
2021/10/27 13:01:10;;;;;;;;;;;;;;;-144.99;100.00;52464.41;5083634;28;20070;-72
2021/10/27 13:03:56;;;;;;;;;;;;;;;-144.99;100.00;52456.25;5082605;28;20008;-72
2021/10/27 13:09:24;;;;;;;;;;;;;;;-144.99;100.00;52419.56;5076937;28;19984;-72
2021/10/27 13:31:08;;;;;;;;;;;;;;;-144.99;100.00;52464.41;5068958;28;20198;-72
2021/10/27 13:33:36;;;;;;;;;;;;;;;-144.99;100.00;52490.91;5082393;28;20001;-73
2021/10/27 13:36:03;;;;;;;;;;;;;;;-144.99;100.00;52439.94;5072481;28;20458;-74
2021/10/27 13:38:34;;;;;;;;;;;;;;;-144.99;100.00;52480.72;5084164;28;19980;-73
2021/10/27 13:41:02;;;;;;;;;;;;;;;-144.99;100.00;52419.56;5088821;28;19997;-74
2021/10/27 13:43:31;;;;;;;;;;;;;;;-144.99;100.00;52480.72;5077499;28;19997;-72
2021/10/27 13:46:12;;;;;;;;;;;;;;;-144.99;100.00;52441.97;5094904;28;20206;-73
2021/10/27 13:48:56;;;;;;;;;;;;;;;-144.99;100.00;52403.25;5080966;28;19991;-71
2021/10/27 14:07:52;;;;;;;;;;;;;;;-144.99;100.00;52427.72;5086427;28;19998;-71
2021/10/27 14:10:29;;;;;;;;;;;;;;;-144.99;100.00;52419.56;5077780;28;20007;-70
2021/10/27 14:13:03;;;;;;;;;;;;;;;-144.99;100.00;52468.47;5079914;28;20142;-70
2021/10/27 14:15:51;;;;;;;;;;;;;;;-144.99;100.00;52458.28;5089507;28;19977;-70
2021/10/27 14:18:32;;;;;;;;;;;;;;;-144.99;100.00;52423.63;5084854;28;19991;-70
2021/10/27 15:21:36;;;;;;;;;;;;;;;-144.99;95.65;52444.03;5091789;28;19987;-69
2021/10/27 15:24:36;;;;;;;;;;;;;;;-144.99;94.99;52468.47;5102866;22;20425;-69
2021/10/27 15:30:18;;;;;;;;;;;;;;;-144.99;94.55;52464.41;5075328;28;19987;-72
2021/10/27 15:32:50;;;;;;;;;;;;;;;-144.99;94.67;52460.31;5077649;28;19993;-73
2021/10/27 15:35:39;;;;;;;;;;;;;;;-144.99;94.09;52413.44;5070711;28;19977;-72
2021/10/27 15:41:12;;;;;;;;;;;;;;;-144.99;93.51;52452.16;5010829;28;20044;-73
2021/10/27 15:43:55;;;;;;;;;;;;;;;-144.99;93.13;52460.31;5009292;28;19998;-75
2021/10/27 15:52:01;;;;;;;;;;;;;;;-144.99;92.41;52460.31;5066628;28;20076;-72
2021/10/27 15:54:27;;;;;;;;;;;;;;;-144.99;92.22;52509.25;5072295;28;20007;-73
2021/10/27 15:56:54;;;;;;;;;;;;;;;-144.99;92.52;52444.03;5079285;28;20418;-72
2021/10/27 15:59:20;;;;;;;;;;;;;;;-144.99;92.24;52468.47;5075311;28;19999;-73
2021/10/27 16:01:47;;;;;;;;;;;;;;;-144.99;92.24;52472.56;5083037;28;20201;-72
2021/10/27 16:04:13;;;;;;;;;;;;;;;-144.99;91.24;52484.78;5065903;28;19985;-72
2021/10/27 16:06:44;;;;;;;;;;;;;;;-144.99;91.37;52499.06;5066078;28;20457;-71
2021/10/27 16:09:11;;;;;;;;;;;;;;;-144.99;91.17;52444.03;5068616;28;20035;-72
2021/10/27 16:11:38;;;;;;;;;;;;;;;-144.99;90.96;52431.78;5065805;28;20404;-72
2021/10/27 16:14:05;;;;;;;;;;;;;;;-144.99;90.46;52509.25;5065763;28;20112;-72